Time;durP1;ratioP1;P1;durP2;ratioP2;P2;SDS_P1;SDS_P2;PMS_P1;PMS_P2;Temp;Humidity;BMP_temperature;BMP_pressure;BME280_temperature;BME280_humidity;BME280_pressure;Samples;Min_cycle;Max_cycle;Signal;HPM_P1;HPM_P2
2021/06/20 00:00:24;;;;;;;15.20;10.30;;;;;;;;;;6242941;23;20170;-90
2021/06/20 00:03:29;;;;;;;13.82;11.00;;;;;;;;;;6244471;23;20235;-89
2021/06/20 00:06:37;;;;;;;17.95;11.38;;;;;;;;;;6243785;23;20170;-90
2021/06/20 00:09:43;;;;;;;19.35;11.32;;;;;;;;;;6242128;22;20190;-90
2021/06/20 00:12:48;;;;;;;19.20;11.73;;;;;;;;;;6243509;22;20166;-91
2021/06/20 00:15:53;;;;;;;20.55;11.77;;;;;;;;;;6242287;22;20586;-89
2021/06/20 00:18:58;;;;;;;15.32;12.10;;;;;;;;;;6242283;23;20205;-90
2021/06/20 00:22:05;;;;;;;21.30;11.75;;;;;;;;;;6241689;22;20271;-92
2021/06/20 00:25:10;;;;;;;16.05;11.75;;;;;;;;;;6239995;22;20170;-91
2021/06/20 00:28:16;;;;;;;20.83;11.52;;;;;;;;;;6244497;22;20147;-90
2021/06/20 00:31:22;;;;;;;14.75;11.30;;;;;;;;;;6243265;22;20198;-90
2021/06/20 00:34:27;;;;;;;17.02;11.40;;;;;;;;;;6243042;23;20648;-91
2021/06/20 00:37:34;;;;;;;14.30;11.57;;;;;;;;;;6242761;23;20190;-91
2021/06/20 00:40:39;;;;;;;18.58;11.35;;;;;;;;;;6243261;22;20167;-92
2021/06/20 00:43:44;;;;;;;17.83;11.90;;;;;;;;;;6262768;22;20182;-90
2021/06/20 00:46:50;;;;;;;17.27;11.93;;;;;;;;;;6243685;22;20181;-92
2021/06/20 00:49:55;;;;;;;19.17;11.70;;;;;;;;;;6243783;22;20329;-90
2021/06/20 00:53:02;;;;;;;14.63;10.95;;;;;;;;;;6245052;23;20162;-91
2021/06/20 00:56:07;;;;;;;18.58;12.40;;;;;;;;;;6245334;22;20161;-91
2021/06/20 00:59:14;;;;;;;17.33;11.52;;;;;;;;;;6244936;23;20166;-89
2021/06/20 01:02:20;;;;;;;13.48;11.02;;;;;;;;;;6245228;23;20235;-91
2021/06/20 01:05:25;;;;;;;13.90;11.32;;;;;;;;;;6244271;22;20170;-91
2021/06/20 01:08:32;;;;;;;16.23;11.68;;;;;;;;;;6243330;22;20154;-92
2021/06/20 01:11:37;;;;;;;18.02;11.52;;;;;;;;;;6244956;22;20245;-91
2021/06/20 01:14:43;;;;;;;18.90;11.50;;;;;;;;;;6244987;23;20166;-89
2021/06/20 01:17:48;;;;;;;16.65;11.57;;;;;;;;;;6244385;22;20147;-91
2021/06/20 01:20:53;;;;;;;16.88;12.05;;;;;;;;;;6264945;22;20162;-90
2021/06/20 01:23:59;;;;;;;17.33;12.40;;;;;;;;;;6244701;23;20613;-90
2021/06/20 01:27:05;;;;;;;14.80;11.52;;;;;;;;;;6245680;22;20501;-91
2021/06/20 01:30:12;;;;;;;15.70;11.07;;;;;;;;;;6245928;22;20256;-90
2021/06/20 01:33:18;;;;;;;17.55;12.02;;;;;;;;;;6245300;22;20222;-91
2021/06/20 01:36:24;;;;;;;15.52;11.25;;;;;;;;;;6245631;22;20158;-91
2021/06/20 01:39:30;;;;;;;13.63;10.88;;;;;;;;;;6245662;23;20166;-91
2021/06/20 01:42:35;;;;;;;17.27;11.88;;;;;;;;;;6245178;22;20167;-93
2021/06/20 01:45:41;;;;;;;16.17;11.25;;;;;;;;;;6245025;22;20186;-91
2021/06/20 01:48:46;;;;;;;15.40;11.25;;;;;;;;;;6244721;22;20218;-91
2021/06/20 01:51:52;;;;;;;17.30;12.07;;;;;;;;;;6246662;23;20154;-92
2021/06/20 01:54:59;;;;;;;18.40;11.55;;;;;;;;;;6246878;22;20181;-91
2021/06/20 01:58:06;;;;;;;15.93;11.85;;;;;;;;;;6245962;22;20405;-91
2021/06/20 02:01:14;;;;;;;19.10;12.68;;;;;;;;;;6245794;23;20193;-90
2021/06/20 02:04:19;;;;;;;14.38;11.38;;;;;;;;;;6244841;23;20167;-90
2021/06/20 02:07:24;;;;;;;16.23;12.38;;;;;;;;;;6245453;22;20170;-91
2021/06/20 02:10:31;;;;;;;17.25;11.77;;;;;;;;;;6245102;22;20202;-89
2021/06/20 02:13:36;;;;;;;15.52;11.65;;;;;;;;;;6262385;22;20166;-92
2021/06/20 02:16:40;;;;;;;16.60;12.25;;;;;;;;;;6243435;23;20197;-90
2021/06/20 02:19:45;;;;;;;18.42;11.90;;;;;;;;;;6244559;23;20170;-91
2021/06/20 02:22:53;;;;;;;15.30;11.75;;;;;;;;;;6245619;22;20194;-91
2021/06/20 02:26:00;;;;;;;22.77;13.15;;;;;;;;;;6247087;22;20490;-91
2021/06/20 02:29:06;;;;;;;16.35;11.90;;;;;;;;;;6246755;23;20262;-91
2021/06/20 02:32:12;;;;;;;16.65;12.38;;;;;;;;;;6245224;23;20217;-93
2021/06/20 02:35:17;;;;;;;17.58;11.73;;;;;;;;;;6244245;23;20170;-92
2021/06/20 02:38:23;;;;;;;15.82;12.20;;;;;;;;;;6246009;22;20170;-90
2021/06/20 02:41:30;;;;;;;19.30;12.05;;;;;;;;;;6245251;22;20220;-91
2021/06/20 02:44:35;;;;;;;20.23;12.02;;;;;;;;;;6243511;23;20269;-90
2021/06/20 02:47:40;;;;;;;18.27;12.30;;;;;;;;;;6264291;22;20203;-90
2021/06/20 02:50:45;;;;;;;16.50;11.27;;;;;;;;;;6245512;23;20262;-91
2021/06/20 02:53:50;;;;;;;15.95;11.77;;;;;;;;;;6243971;22;20483;-92
2021/06/20 02:56:59;;;;;;;17.67;12.57;;;;;;;;;;6245869;22;20178;-92
2021/06/20 03:00:05;;;;;;;15.77;11.95;;;;;;;;;;6246080;23;20170;-91
2021/06/20 03:03:10;;;;;;;18.67;12.18;;;;;;;;;;6244026;23;20190;-92
2021/06/20 03:06:16;;;;;;;19.33;12.27;;;;;;;;;;6244810;22;20182;-92
2021/06/20 03:09:21;;;;;;;20.27;11.95;;;;;;;;;;6243302;23;20166;-91
2021/06/20 03:12:27;;;;;;;18.30;12.27;;;;;;;;;;6243941;22;20162;-92
2021/06/20 03:15:33;;;;;;;18.27;12.45;;;;;;;;;;6244241;22;20186;-92
2021/06/20 03:18:38;;;;;;;14.93;11.80;;;;;;;;;;6244696;23;20166;-92
2021/06/20 03:21:44;;;;;;;19.20;12.52;;;;;;;;;;6244196;23;20166;-91
2021/06/20 03:24:51;;;;;;;14.88;12.02;;;;;;;;;;6244021;22;20211;-92
2021/06/20 03:27:57;;;;;;;15.20;11.50;;;;;;;;;;6244848;22;20186;-91
2021/06/20 03:31:03;;;;;;;16.17;11.50;;;;;;;;;;6245159;22;20206;-91
2021/06/20 03:34:08;;;;;;;17.48;12.80;;;;;;;;;;6246291;23;20197;-91
2021/06/20 03:37:14;;;;;;;20.90;12.00;;;;;;;;;;6245343;23;20211;-90
2021/06/20 03:40:20;;;;;;;15.90;12.18;;;;;;;;;;6244909;23;20336;-88
2021/06/20 03:43:26;;;;;;;21.83;11.63;;;;;;;;;;6243467;22;20170;-90
2021/06/20 03:46:31;;;;;;;15.57;11.85;;;;;;;;;;6243954;22;20222;-92
2021/06/20 03:49:37;;;;;;;18.20;12.02;;;;;;;;;;6243839;22;20174;-91
2021/06/20 03:52:43;;;;;;;17.52;11.57;;;;;;;;;;6243450;23;20629;-89
2021/06/20 03:55:48;;;;;;;18.90;12.82;;;;;;;;;;6243015;23;20162;-91
2021/06/20 03:58:54;;;;;;;16.85;11.88;;;;;;;;;;6243110;22;20150;-90
2021/06/20 04:02:39;;;;;;;16.27;11.60;;;;;;;;;;6242648;23;20197;-90
2021/06/20 04:06:09;;;;;;;18.92;11.90;;;;;;;;;;6242690;23;20166;-92
2021/06/20 04:09:15;;;;;;;15.50;11.63;;;;;;;;;;6242261;23;20166;-91
2021/06/20 04:12:20;;;;;;;16.67;11.82;;;;;;;;;;6243188;22;20174;-89
2021/06/20 04:15:27;;;;;;;15.98;11.90;;;;;;;;;;6242647;22;20166;-92
2021/06/20 04:18:32;;;;;;;15.60;11.15;;;;;;;;;;6243781;23;20165;-90
2021/06/20 04:21:37;;;;;;;20.15;12.25;;;;;;;;;;6244807;23;20247;-90
2021/06/20 04:24:42;;;;;;;16.42;11.82;;;;;;;;;;6244597;23;20166;-92
2021/06/20 04:27:49;;;;;;;13.38;10.20;;;;;;;;;;6243364;22;20169;-89
2021/06/20 04:30:58;;;;;;;14.68;11.45;;;;;;;;;;6244008;22;20256;-91
2021/06/20 04:34:03;;;;;;;17.15;11.55;;;;;;;;;;6245704;22;20171;-91
2021/06/20 04:37:09;;;;;;;17.40;12.00;;;;;;;;;;6246713;23;20229;-93
2021/06/20 04:40:17;;;;;;;17.20;11.10;;;;;;;;;;6245427;22;20161;-90
2021/06/20 04:43:38;;;;;;;16.17;11.30;;;;;;;;;;6243761;23;20166;-91
2021/06/20 04:46:45;;;;;;;20.83;11.80;;;;;;;;;;6246068;23;20190;-92
2021/06/20 04:49:52;;;;;;;15.95;11.60;;;;;;;;;;6246474;23;20481;-90
2021/06/20 04:52:58;;;;;;;17.92;12.40;;;;;;;;;;6246539;22;20166;-91
2021/06/20 04:56:03;;;;;;;20.13;12.80;;;;;;;;;;6244599;23;20170;-91
2021/06/20 04:59:09;;;;;;;18.80;12.57;;;;;;;;;;6243805;23;20171;-91
2021/06/20 05:02:16;;;;;;;15.20;11.75;;;;;;;;;;6242710;22;20193;-92
2021/06/20 05:05:21;;;;;;;15.35;11.88;;;;;;;;;;6243791;23;20211;-91
2021/06/20 05:08:27;;;;;;;15.15;11.88;;;;;;;;;;6243139;23;20167;-92
2021/06/20 05:11:32;;;;;;;17.00;12.75;;;;;;;;;;6241993;23;20493;-90
2021/06/20 05:14:37;;;;;;;19.15;12.65;;;;;;;;;;6244343;22;20622;-93
2021/06/20 05:17:44;;;;;;;18.45;11.88;;;;;;;;;;6242563;23;20162;-92
2021/06/20 05:20:50;;;;;;;16.55;12.00;;;;;;;;;;6242183;23;20170;-91
2021/06/20 05:23:55;;;;;;;16.73;12.20;;;;;;;;;;6242734;23;20186;-90
2021/06/20 05:27:00;;;;;;;22.15;12.40;;;;;;;;;;6242404;23;20219;-91
2021/06/20 05:30:06;;;;;;;17.02;12.13;;;;;;;;;;6239083;22;20170;-89
2021/06/20 05:33:13;;;;;;;15.77;11.98;;;;;;;;;;6241312;22;20174;-91
2021/06/20 05:36:18;;;;;;;16.92;11.95;;;;;;;;;;6241303;23;20181;-92
2021/06/20 05:39:23;;;;;;;19.67;12.15;;;;;;;;;;6241137;23;20244;-90
2021/06/20 05:42:28;;;;;;;15.88;13.00;;;;;;;;;;6241187;22;20155;-92
2021/06/20 05:45:34;;;;;;;23.17;13.70;;;;;;;;;;6240838;23;20170;-91
2021/06/20 05:48:40;;;;;;;18.92;13.82;;;;;;;;;;6240445;22;20166;-92
2021/06/20 05:51:45;;;;;;;24.83;13.32;;;;;;;;;;6241598;23;20233;-93
2021/06/20 05:54:50;;;;;;;18.85;13.00;;;;;;;;;;6242232;23;20167;-90
2021/06/20 05:57:56;;;;;;;17.38;12.52;;;;;;;;;;6240111;23;20166;-91
2021/06/20 06:01:01;;;;;;;17.13;12.73;;;;;;;;;;6240154;22;20200;-91
2021/06/20 06:04:07;;;;;;;17.65;13.07;;;;;;;;;;6239633;22;20182;-90
2021/06/20 06:07:13;;;;;;;18.38;12.95;;;;;;;;;;6241800;22;20209;-90
2021/06/20 06:10:18;;;;;;;16.80;12.07;;;;;;;;;;6243588;23;20630;-93
2021/06/20 06:13:23;;;;;;;15.57;12.13;;;;;;;;;;6239567;23;20174;-92
2021/06/20 06:16:29;;;;;;;17.00;12.85;;;;;;;;;;6241147;22;20293;-91
2021/06/20 06:19:35;;;;;;;17.63;11.82;;;;;;;;;;6239571;22;20178;-91
2021/06/20 06:22:40;;;;;;;19.67;12.75;;;;;;;;;;6242063;23;20197;-93
2021/06/20 06:25:45;;;;;;;18.98;12.20;;;;;;;;;;6241961;23;20613;-90
2021/06/20 06:28:51;;;;;;;16.83;11.63;;;;;;;;;;6239792;23;20234;-91
2021/06/20 06:31:56;;;;;;;17.80;11.40;;;;;;;;;;6239767;23;20210;-90
2021/06/20 06:35:03;;;;;;;13.90;10.90;;;;;;;;;;6239691;23;20170;-91
2021/06/20 06:38:08;;;;;;;14.98;10.27;;;;;;;;;;6239729;22;20233;-92
2021/06/20 06:41:17;;;;;;;16.65;11.25;;;;;;;;;;6239856;23;20170;-92
2021/06/20 06:44:23;;;;;;;14.70;10.68;;;;;;;;;;6240323;23;20210;-92
2021/06/20 06:47:29;;;;;;;16.00;11.13;;;;;;;;;;6239761;23;20165;-93
2021/06/20 06:50:35;;;;;;;15.45;10.38;;;;;;;;;;6238864;22;20209;-91
2021/06/20 06:53:40;;;;;;;16.25;10.70;;;;;;;;;;6239648;23;20175;-92
2021/06/20 06:56:45;;;;;;;14.77;10.07;;;;;;;;;;6239166;23;20170;-91
2021/06/20 06:59:52;;;;;;;17.10;10.40;;;;;;;;;;6240483;23;20248;-93
2021/06/20 07:02:57;;;;;;;15.88;10.10;;;;;;;;;;6240622;23;20237;-91
2021/06/20 07:06:05;;;;;;;12.77;10.38;;;;;;;;;;6240625;23;20166;-92
2021/06/20 07:09:10;;;;;;;20.83;11.65;;;;;;;;;;6242178;23;20494;-91
2021/06/20 07:12:15;;;;;;;12.18;10.07;;;;;;;;;;6241336;23;20171;-92
2021/06/20 07:15:20;;;;;;;11.85;9.30;;;;;;;;;;6240510;22;20163;-92
2021/06/20 07:18:26;;;;;;;12.65;8.93;;;;;;;;;;6241160;23;20278;-92
2021/06/20 07:21:33;;;;;;;12.48;8.48;;;;;;;;;;6240463;23;20324;-91
2021/06/20 07:24:38;;;;;;;12.27;8.60;;;;;;;;;;6240915;23;20197;-92
2021/06/20 07:27:43;;;;;;;13.25;8.27;;;;;;;;;;6240004;23;20166;-90
2021/06/20 07:30:49;;;;;;;12.27;8.90;;;;;;;;;;6242601;23;20165;-91
2021/06/20 07:33:55;;;;;;;10.45;8.68;;;;;;;;;;6241345;22;20170;-89
2021/06/20 07:37:01;;;;;;;10.40;8.20;;;;;;;;;;6242212;23;20173;-88
2021/06/20 07:40:11;;;;;;;11.65;8.40;;;;;;;;;;6240272;23;20182;-91
2021/06/20 07:43:16;;;;;;;12.32;8.77;;;;;;;;;;6240232;23;20193;-90
2021/06/20 07:46:21;;;;;;;13.30;8.30;;;;;;;;;;6242098;22;20170;-92
2021/06/20 07:49:26;;;;;;;12.13;8.50;;;;;;;;;;6241111;23;20173;-90
2021/06/20 07:52:32;;;;;;;10.77;8.18;;;;;;;;;;6241647;22;20184;-92
2021/06/20 07:55:37;;;;;;;17.85;8.25;;;;;;;;;;6241325;23;20244;-92
2021/06/20 07:58:42;;;;;;;17.80;8.40;;;;;;;;;;6239942;23;20238;-91
2021/06/20 08:01:47;;;;;;;10.40;8.52;;;;;;;;;;6240764;23;20205;-89
2021/06/20 08:04:52;;;;;;;13.10;9.02;;;;;;;;;;6241274;22;20525;-91
2021/06/20 08:08:01;;;;;;;19.67;8.90;;;;;;;;;;6239893;23;20502;-91
2021/06/20 08:11:07;;;;;;;15.95;8.90;;;;;;;;;;6239659;23;20169;-92
2021/06/20 08:14:14;;;;;;;14.50;8.85;;;;;;;;;;6238568;23;20494;-93
2021/06/20 08:17:19;;;;;;;13.75;8.60;;;;;;;;;;6240810;23;20238;-92
2021/06/20 08:20:24;;;;;;;16.60;8.52;;;;;;;;;;6247693;23;20165;-88
2021/06/20 08:23:31;;;;;;;10.88;8.38;;;;;;;;;;6240060;22;20173;-90
2021/06/20 08:26:36;;;;;;;9.95;8.07;;;;;;;;;;6242742;23;20204;-92
2021/06/20 08:29:41;;;;;;;12.20;8.60;;;;;;;;;;6242088;23;20166;-90
2021/06/20 08:32:46;;;;;;;13.45;9.23;;;;;;;;;;6239874;23;20169;-89
2021/06/20 08:35:51;;;;;;;14.05;9.18;;;;;;;;;;6239282;22;20153;-91
2021/06/20 08:38:57;;;;;;;11.20;9.50;;;;;;;;;;6239306;22;20169;-89
2021/06/20 08:42:03;;;;;;;12.48;8.57;;;;;;;;;;6238857;23;20238;-89
2021/06/20 08:45:08;;;;;;;12.88;8.68;;;;;;;;;;6241292;23;20205;-90
2021/06/20 08:48:14;;;;;;;12.73;9.57;;;;;;;;;;6240231;23;20186;-90
2021/06/20 08:51:19;;;;;;;21.42;9.35;;;;;;;;;;6240082;23;20221;-90
2021/06/20 08:54:26;;;;;;;13.05;9.13;;;;;;;;;;6241070;23;20162;-90
2021/06/20 08:57:36;;;;;;;13.63;9.85;;;;;;;;;;6240505;23;20169;-89
2021/06/20 09:00:41;;;;;;;10.85;8.77;;;;;;;;;;6237275;22;20182;-89
2021/06/20 09:03:47;;;;;;;12.60;8.88;;;;;;;;;;6239805;23;20663;-91
2021/06/20 09:06:51;;;;;;;11.40;9.15;;;;;;;;;;6244178;23;20190;-91
2021/06/20 09:10:08;;;;;;;13.98;8.57;;;;;;;;;;6239806;23;20169;-91
2021/06/20 09:13:14;;;;;;;11.48;8.57;;;;;;;;;;6238327;23;20162;-89
2021/06/20 09:16:21;;;;;;;14.15;8.32;;;;;;;;;;6239228;22;20173;-92
2021/06/20 09:19:31;;;;;;;14.57;9.13;;;;;;;;;;6242267;23;20173;-90
2021/06/20 09:22:37;;;;;;;11.82;8.50;;;;;;;;;;6242434;23;20656;-91
2021/06/20 09:25:44;;;;;;;9.55;7.57;;;;;;;;;;6240547;23;20240;-91
2021/06/20 09:29:00;;;;;;;11.65;7.47;;;;;;;;;;6241691;23;20173;-92
2021/06/20 09:32:07;;;;;;;10.65;7.20;;;;;;;;;;6242493;23;20217;-91
2021/06/20 09:35:20;;;;;;;9.90;7.78;;;;;;;;;;6244432;23;20221;-90
2021/06/20 09:38:26;;;;;;;11.88;8.02;;;;;;;;;;6244612;23;20169;-89
2021/06/20 09:41:33;;;;;;;12.57;8.20;;;;;;;;;;6241551;23;20181;-89
2021/06/20 09:44:42;;;;;;;11.63;8.00;;;;;;;;;;6240756;23;20170;-91
2021/06/20 09:47:48;;;;;;;14.05;8.80;;;;;;;;;;6243569;23;20165;-90
2021/06/20 09:50:55;;;;;;;13.02;8.48;;;;;;;;;;6244545;22;20170;-90
2021/06/20 09:54:00;;;;;;;12.57;7.88;;;;;;;;;;6245341;23;20185;-88
2021/06/20 09:57:15;;;;;;;11.95;8.27;;;;;;;;;;6262346;23;20208;-90
2021/06/20 10:00:21;;;;;;;10.50;8.43;;;;;;;;;;6245073;22;20170;-88
2021/06/20 10:03:26;;;;;;;17.25;8.30;;;;;;;;;;6244411;22;20249;-88
2021/06/20 10:06:31;;;;;;;16.42;7.63;;;;;;;;;;6245293;23;20683;-88
2021/06/20 10:09:36;;;;;;;10.40;8.38;;;;;;;;;;6243014;23;20591;-90
2021/06/20 10:12:43;;;;;;;11.13;8.23;;;;;;;;;;6244238;23;20174;-90
2021/06/20 10:15:48;;;;;;;11.95;8.48;;;;;;;;;;6244890;23;20158;-87
2021/06/20 10:18:57;;;;;;;12.85;9.02;;;;;;;;;;6242082;23;20227;-91
2021/06/20 10:22:06;;;;;;;14.05;8.80;;;;;;;;;;6243157;22;20154;-90
2021/06/20 10:25:13;;;;;;;13.93;9.05;;;;;;;;;;6246297;22;20174;-88
2021/06/20 10:28:22;;;;;;;11.93;9.05;;;;;;;;;;6247716;23;20205;-90
2021/06/20 10:31:37;;;;;;;12.20;9.43;;;;;;;;;;6246725;23;20209;-90
2021/06/20 10:34:53;;;;;;;16.83;10.27;;;;;;;;;;6244187;23;20174;-89
2021/06/20 10:37:59;;;;;;;13.25;9.65;;;;;;;;;;6227328;22;20169;-90
2021/06/20 10:41:05;;;;;;;13.55;9.13;;;;;;;;;;6243571;23;20169;-90
2021/06/20 10:44:11;;;;;;;12.77;9.00;;;;;;;;;;6243227;23;20212;-90
2021/06/20 10:47:30;;;;;;;14.98;9.18;;;;;;;;;;6242448;23;20185;-91
2021/06/20 10:50:37;;;;;;;17.10;10.73;;;;;;;;;;6242623;22;20162;-89
2021/06/20 10:53:44;;;;;;;13.10;9.45;;;;;;;;;;6242004;22;20197;-91
2021/06/20 10:56:57;;;;;;;15.90;8.73;;;;;;;;;;6243890;22;20170;-89
2021/06/20 11:00:04;;;;;;;11.15;9.20;;;;;;;;;;6241534;23;20216;-90
2021/06/20 11:03:10;;;;;;;11.50;8.95;;;;;;;;;;6242238;23;20251;-89
2021/06/20 11:06:16;;;;;;;17.42;10.02;;;;;;;;;;6244415;23;20284;-89
2021/06/20 11:09:22;;;;;;;13.32;8.65;;;;;;;;;;6243275;23;20185;-90
2021/06/20 11:12:28;;;;;;;13.82;9.68;;;;;;;;;;6246721;23;20170;-90
2021/06/20 11:15:34;;;;;;;10.45;8.85;;;;;;;;;;6245904;23;20174;-90
2021/06/20 11:18:40;;;;;;;14.05;8.63;;;;;;;;;;6245266;23;20337;-91
2021/06/20 11:21:48;;;;;;;11.32;9.38;;;;;;;;;;6270181;23;20173;-89
2021/06/20 11:24:53;;;;;;;15.77;9.23;;;;;;;;;;6249928;23;20454;-87
2021/06/20 11:27:59;;;;;;;10.65;9.15;;;;;;;;;;6242702;23;20245;-90
2021/06/20 11:31:12;;;;;;;14.15;9.57;;;;;;;;;;6243197;23;20241;-91
2021/06/20 11:34:18;;;;;;;15.35;8.70;;;;;;;;;;6242283;23;20213;-88
2021/06/20 11:37:26;;;;;;;9.95;8.23;;;;;;;;;;6242418;22;20177;-88
2021/06/20 11:40:32;;;;;;;12.02;8.10;;;;;;;;;;6241923;22;20174;-88
2021/06/20 11:43:41;;;;;;;9.90;8.40;;;;;;;;;;6240660;23;20336;-88
2021/06/20 11:46:48;;;;;;;12.40;8.77;;;;;;;;;;6241948;23;20171;-89
2021/06/20 11:49:54;;;;;;;12.40;8.07;;;;;;;;;;6240888;23;20154;-89
2021/06/20 11:53:00;;;;;;;14.85;8.30;;;;;;;;;;6260278;22;20225;-90
2021/06/20 11:56:06;;;;;;;9.23;8.00;;;;;;;;;;6259194;23;20169;-90
2021/06/20 11:59:11;;;;;;;11.93;8.32;;;;;;;;;;6241914;22;20242;-90
2021/06/20 12:02:18;;;;;;;12.32;7.72;;;;;;;;;;6241387;23;20264;-90
2021/06/20 12:05:24;;;;;;;13.60;7.97;;;;;;;;;;6242827;23;20153;-89
2021/06/20 12:08:29;;;;;;;12.65;7.63;;;;;;;;;;6242835;23;20612;-89
2021/06/20 12:11:35;;;;;;;11.15;8.20;;;;;;;;;;6240987;23;20157;-88
2021/06/20 12:14:42;;;;;;;15.98;9.15;;;;;;;;;;6238318;23;20166;-89
2021/06/20 12:17:51;;;;;;;13.20;8.50;;;;;;;;;;6241894;22;20170;-89
2021/06/20 12:20:56;;;;;;;11.75;7.90;;;;;;;;;;6243207;23;20185;-89
2021/06/20 12:24:02;;;;;;;10.18;8.27;;;;;;;;;;6243477;23;20246;-89
2021/06/20 12:27:07;;;;;;;10.85;7.88;;;;;;;;;;6243679;23;20194;-90
2021/06/20 12:30:16;;;;;;;10.38;7.97;;;;;;;;;;6239976;23;20166;-90
2021/06/20 12:33:24;;;;;;;15.43;9.02;;;;;;;;;;6238914;23;20216;-89
2021/06/20 12:36:30;;;;;;;14.57;8.88;;;;;;;;;;6239142;23;20240;-90
2021/06/20 12:39:44;;;;;;;12.65;8.55;;;;;;;;;;6238528;23;20680;-89
2021/06/20 12:42:50;;;;;;;10.55;9.00;;;;;;;;;;6239748;22;20190;-90
2021/06/20 12:46:00;;;;;;;10.60;8.50;;;;;;;;;;6239530;23;20491;-89
2021/06/20 12:49:08;;;;;;;15.25;8.82;;;;;;;;;;6239744;23;20170;-89
2021/06/20 12:52:13;;;;;;;11.25;8.57;;;;;;;;;;6240421;23;20166;-88
2021/06/20 12:55:19;;;;;;;9.45;7.78;;;;;;;;;;6242356;22;20221;-90
2021/06/20 12:58:24;;;;;;;13.43;8.23;;;;;;;;;;6241264;23;20158;-89
2021/06/20 13:01:30;;;;;;;10.02;7.50;;;;;;;;;;6241064;23;20177;-90
2021/06/20 13:04:47;;;;;;;14.30;8.32;;;;;;;;;;6241686;23;20216;-90
2021/06/20 13:07:52;;;;;;;9.00;7.30;;;;;;;;;;6240335;23;20293;-90
2021/06/20 13:10:57;;;;;;;14.60;7.93;;;;;;;;;;6240250;23;20185;-89
2021/06/20 13:14:12;;;;;;;13.30;7.68;;;;;;;;;;6241210;23;20220;-90
2021/06/20 13:17:17;;;;;;;12.52;7.88;;;;;;;;;;6242946;23;20240;-90
2021/06/20 13:20:25;;;;;;;13.10;7.45;;;;;;;;;;6241984;23;20162;-90
2021/06/20 13:23:30;;;;;;;10.38;7.10;;;;;;;;;;6241937;23;20197;-89
2021/06/20 13:26:35;;;;;;;9.63;8.10;;;;;;;;;;6241187;23;20188;-90
2021/06/20 13:29:41;;;;;;;8.82;7.05;;;;;;;;;;6240891;23;20153;-88
2021/06/20 13:32:46;;;;;;;12.38;7.32;;;;;;;;;;6241395;22;20161;-90
2021/06/20 13:35:53;;;;;;;13.10;7.45;;;;;;;;;;6241248;23;20196;-90
2021/06/20 13:38:58;;;;;;;10.20;7.38;;;;;;;;;;6239230;23;20173;-90
2021/06/20 13:42:02;;;;;;;13.55;7.40;;;;;;;;;;6240754;23;20170;-89
2021/06/20 13:45:08;;;;;;;11.07;7.32;;;;;;;;;;6241941;23;20248;-90
2021/06/20 13:48:14;;;;;;;14.82;7.45;;;;;;;;;;6242734;23;20177;-89
2021/06/20 13:51:20;;;;;;;17.05;7.80;;;;;;;;;;6242108;23;20158;-89
2021/06/20 13:54:26;;;;;;;8.90;7.65;;;;;;;;;;6243403;23;20170;-88
2021/06/20 13:57:31;;;;;;;18.58;8.85;;;;;;;;;;6242379;23;20169;-89
2021/06/20 14:00:36;;;;;;;12.40;8.55;;;;;;;;;;6240187;23;20203;-90
2021/06/20 14:03:42;;;;;;;12.07;8.85;;;;;;;;;;6228844;23;20173;-90
2021/06/20 14:06:50;;;;;;;13.27;8.23;;;;;;;;;;6211655;23;20215;-90
2021/06/20 14:09:55;;;;;;;10.90;7.88;;;;;;;;;;6212181;23;20170;-89
2021/06/20 14:13:00;;;;;;;10.80;8.20;;;;;;;;;;6211033;23;20424;-89
2021/06/20 14:16:05;;;;;;;11.23;8.05;;;;;;;;;;6212988;23;20171;-89
2021/06/20 14:19:10;;;;;;;13.77;8.00;;;;;;;;;;6210021;22;20222;-88
2021/06/20 14:22:17;;;;;;;11.00;8.55;;;;;;;;;;6209556;23;20166;-89
2021/06/20 14:25:22;;;;;;;10.68;8.40;;;;;;;;;;6209661;23;20174;-90
2021/06/20 14:28:28;;;;;;;15.75;8.32;;;;;;;;;;6212236;23;20172;-89
2021/06/20 14:31:32;;;;;;;13.38;8.50;;;;;;;;;;6211607;23;20240;-90
2021/06/20 14:34:37;;;;;;;10.52;8.55;;;;;;;;;;6213573;22;20158;-89
2021/06/20 14:37:44;;;;;;;13.63;8.95;;;;;;;;;;6211455;23;20162;-90
2021/06/20 14:40:50;;;;;;;14.50;8.43;;;;;;;;;;6211078;23;20218;-89
2021/06/20 14:43:55;;;;;;;11.82;8.85;;;;;;;;;;6211284;23;20309;-90
2021/06/20 14:47:01;;;;;;;16.42;9.10;;;;;;;;;;6211594;23;20221;-89
2021/06/20 14:50:07;;;;;;;10.65;8.38;;;;;;;;;;6213042;22;20171;-89
2021/06/20 14:53:13;;;;;;;15.00;9.07;;;;;;;;;;6212968;23;20171;-90
2021/06/20 14:56:18;;;;;;;15.48;9.00;;;;;;;;;;6212380;23;20154;-88
2021/06/20 14:59:27;;;;;;;10.98;9.32;;;;;;;;;;6214202;23;20165;-88
2021/06/20 15:02:32;;;;;;;14.93;9.30;;;;;;;;;;6233564;23;20201;-88
2021/06/20 15:05:37;;;;;;;16.90;9.55;;;;;;;;;;6240534;23;20214;-90
2021/06/20 15:08:44;;;;;;;11.48;9.20;;;;;;;;;;6243017;23;20157;-90
2021/06/20 15:11:50;;;;;;;12.85;8.82;;;;;;;;;;6242154;23;20177;-90
2021/06/20 15:14:56;;;;;;;17.08;10.10;;;;;;;;;;6243094;23;20672;-88
2021/06/20 15:18:02;;;;;;;15.57;9.60;;;;;;;;;;6242416;22;20209;-88
2021/06/20 15:21:07;;;;;;;16.25;10.32;;;;;;;;;;6241226;23;20173;-89
2021/06/20 15:24:17;;;;;;;15.30;10.10;;;;;;;;;;6242687;23;20240;-89
2021/06/20 15:27:22;;;;;;;15.60;9.40;;;;;;;;;;6239978;23;20225;-89
2021/06/20 15:30:28;;;;;;;16.60;10.45;;;;;;;;;;6240304;23;20209;-88
2021/06/20 15:33:33;;;;;;;14.50;9.90;;;;;;;;;;6240718;23;20177;-90
2021/06/20 15:36:38;;;;;;;15.10;10.70;;;;;;;;;;6241291;23;20153;-89
2021/06/20 15:39:44;;;;;;;18.90;10.82;;;;;;;;;;6241211;23;20185;-89
2021/06/20 15:42:50;;;;;;;16.40;10.57;;;;;;;;;;6240872;23;20153;-90
2021/06/20 15:45:56;;;;;;;13.32;10.80;;;;;;;;;;6243699;23;20186;-87
2021/06/20 15:49:01;;;;;;;15.18;10.48;;;;;;;;;;6241170;23;20598;-88
2021/06/20 15:52:07;;;;;;;19.95;11.02;;;;;;;;;;6243648;22;20174;-89
2021/06/20 15:55:14;;;;;;;14.40;10.30;;;;;;;;;;6258171;23;20166;-89
2021/06/20 15:58:20;;;;;;;14.90;10.90;;;;;;;;;;6242383;23;20166;-89
2021/06/20 16:01:25;;;;;;;17.30;10.77;;;;;;;;;;6239986;23;20292;-90
2021/06/20 16:04:29;;;;;;;14.15;10.73;;;;;;;;;;6239277;23;20309;-90
2021/06/20 16:07:35;;;;;;;19.50;10.77;;;;;;;;;;6256187;22;20166;-87
2021/06/20 16:10:42;;;;;;;16.60;11.02;;;;;;;;;;6237629;23;20166;-88
2021/06/20 16:13:47;;;;;;;16.98;10.90;;;;;;;;;;6240534;23;20177;-89
2021/06/20 16:16:53;;;;;;;17.83;10.80;;;;;;;;;;6255984;22;20165;-89
2021/06/20 16:19:58;;;;;;;16.33;10.82;;;;;;;;;;6238849;22;20209;-90
2021/06/20 16:23:04;;;;;;;17.30;10.57;;;;;;;;;;6237254;23;20602;-89
2021/06/20 16:26:12;;;;;;;14.40;10.50;;;;;;;;;;6239016;23;20171;-90
2021/06/20 16:29:16;;;;;;;17.40;11.57;;;;;;;;;;6239116;23;20712;-89
2021/06/20 16:32:22;;;;;;;14.65;10.75;;;;;;;;;;6242060;23;20205;-90
2021/06/20 16:35:27;;;;;;;21.50;10.65;;;;;;;;;;6242052;23;20177;-88
2021/06/20 16:38:32;;;;;;;15.00;10.70;;;;;;;;;;6242530;23;20189;-89
2021/06/20 16:41:38;;;;;;;14.80;11.02;;;;;;;;;;6250269;23;20190;-91
2021/06/20 16:44:44;;;;;;;14.50;10.68;;;;;;;;;;6241560;23;20239;-90
2021/06/20 16:47:50;;;;;;;14.98;10.38;;;;;;;;;;6240484;23;20165;-88
2021/06/20 16:50:55;;;;;;;19.38;10.45;;;;;;;;;;6240974;23;20197;-91
2021/06/20 16:54:00;;;;;;;19.27;10.10;;;;;;;;;;6243333;23;20215;-90
2021/06/20 16:57:07;;;;;;;14.65;10.30;;;;;;;;;;6243477;23;20241;-90
2021/06/20 17:00:13;;;;;;;17.10;11.30;;;;;;;;;;6243515;23;20229;-89
2021/06/20 17:03:19;;;;;;;18.38;11.55;;;;;;;;;;6230199;22;20174;-88
2021/06/20 17:06:24;;;;;;;14.05;10.32;;;;;;;;;;6212009;23;20470;-90
2021/06/20 17:09:29;;;;;;;18.35;11.15;;;;;;;;;;6230178;23;20151;-90
2021/06/20 17:12:37;;;;;;;15.68;10.57;;;;;;;;;;6212058;22;20172;-89
2021/06/20 17:15:43;;;;;;;17.08;10.60;;;;;;;;;;6196168;23;20163;-88
2021/06/20 17:18:48;;;;;;;14.23;10.90;;;;;;;;;;6210896;23;20167;-89
2021/06/20 17:21:55;;;;;;;19.00;13.00;;;;;;;;;;6211763;23;20207;-89
2021/06/20 17:25:00;;;;;;;16.25;11.68;;;;;;;;;;6211402;22;20245;-90
2021/06/20 17:28:07;;;;;;;18.73;12.88;;;;;;;;;;6211060;23;20250;-89
2021/06/20 17:31:12;;;;;;;21.58;11.38;;;;;;;;;;6210456;23;20171;-89
2021/06/20 17:34:17;;;;;;;21.58;11.18;;;;;;;;;;6212530;23;20167;-89
2021/06/20 17:37:22;;;;;;;17.92;11.02;;;;;;;;;;6209730;23;20780;-89
2021/06/20 17:40:27;;;;;;;14.85;10.55;;;;;;;;;;6210223;23;20158;-88
2021/06/20 17:43:36;;;;;;;15.32;11.25;;;;;;;;;;6210543;23;20175;-88
2021/06/20 17:46:41;;;;;;;18.08;10.73;;;;;;;;;;6209890;23;20495;-87
2021/06/20 17:49:46;;;;;;;16.33;11.43;;;;;;;;;;6209889;23;20170;-90
2021/06/20 17:52:51;;;;;;;15.50;11.30;;;;;;;;;;6210446;23;20198;-90
2021/06/20 17:55:56;;;;;;;17.63;10.98;;;;;;;;;;6210436;23;20175;-89
2021/06/20 17:59:03;;;;;;;19.83;12.98;;;;;;;;;;6210615;23;20163;-89
2021/06/20 18:02:08;;;;;;;18.13;11.52;;;;;;;;;;6226209;23;20202;-90
2021/06/20 18:05:16;;;;;;;17.50;11.63;;;;;;;;;;6241547;23;20246;-88
2021/06/20 18:08:22;;;;;;;18.85;13.13;;;;;;;;;;6242685;23;20174;-88
2021/06/20 18:11:28;;;;;;;17.83;12.50;;;;;;;;;;6243932;22;20166;-88